SWA636 KELP-KSAT
Flight info
| Callsign | SWA636 |
|---|---|
| Flight time | 1h 9m |
| Altitude | 39000 |
| Route | FST |
| Aircraft | B738/M-SDE3/STD |
Departure
| Time | 2026-04-21 20:59 |
|---|---|
| Airport | El Paso International Airport (KELP) |
Arrival
| Time | 2026-04-21 22:09 |
|---|---|
| Airport | San Antonio International Airport (KSAT) |
| Time | Latitude | Longitude | Altitude | Speed | Heading |
|---|---|---|---|---|---|
| 2026-04-21 20:34 | 31.80040 | -106.39509 | 3966 ft | 0 kts | 167° |
| 2026-04-21 20:48 | 31.80063 | -106.39515 | 3966 ft | 3 kts | 167° |
| 2026-04-21 20:48 | 31.80080 | -106.39519 | 3966 ft | 1 kts | 176° |
| 2026-04-21 20:49 | 31.80093 | -106.39517 | 3966 ft | 1 kts | 199° |
| 2026-04-21 20:49 | 31.80104 | -106.39510 | 3966 ft | 1 kts | 221° |
| 2026-04-21 20:49 | 31.80112 | -106.39500 | 3966 ft | 1 kts | 244° |
| 2026-04-21 20:49 | 31.80117 | -106.39485 | 3966 ft | 0 kts | 257° |
| 2026-04-21 20:54 | 31.80116 | -106.39488 | 3966 ft | 1 kts | 257° |
| 2026-04-21 20:55 | 31.80123 | -106.39558 | 3966 ft | 13 kts | 289° |
| 2026-04-21 20:55 | 31.80150 | -106.39645 | 3966 ft | 8 kts | 277° |
| 2026-04-21 20:55 | 31.80153 | -106.39731 | 3966 ft | 13 kts | 262° |
| 2026-04-21 20:55 | 31.80099 | -106.39825 | 3966 ft | 13 kts | 229° |
| 2026-04-21 20:56 | 31.80091 | -106.39898 | 3966 ft | 0 kts | 309° |
| 2026-04-21 20:58 | 31.80096 | -106.39904 | 3966 ft | 3 kts | 314° |
| 2026-04-21 20:58 | 31.80136 | -106.39949 | 3966 ft | 7 kts | 315° |
| 2026-04-21 20:58 | 31.80168 | -106.39954 | 3966 ft | 3 kts | 34° |
| 2026-04-21 20:58 | 31.80280 | -106.39812 | 3966 ft | 62 kts | 50° |
| 2026-04-21 20:59 | 31.80738 | -106.39172 | 3967 ft | 140 kts | 50° |
| 2026-04-21 20:59 | 31.81478 | -106.38114 | 4232 ft | 185 kts | 51° |
| 2026-04-21 20:59 | 31.82320 | -106.36884 | 4853 ft | 207 kts | 51° |
| 2026-04-21 20:59 | 31.83300 | -106.35506 | 5456 ft | 236 kts | 47° |
| 2026-04-21 21:00 | 31.84443 | -106.33947 | 6129 ft | 264 kts | 49° |
| 2026-04-21 21:00 | 31.85652 | -106.32233 | 6765 ft | 283 kts | 55° |
| 2026-04-21 21:00 | 31.86452 | -106.30115 | 7261 ft | 287 kts | 76° |
| 2026-04-21 21:00 | 31.86579 | -106.27786 | 7762 ft | 290 kts | 96° |
| 2026-04-21 21:01 | 31.86035 | -106.25507 | 8275 ft | 293 kts | 112° |
| 2026-04-21 21:01 | 31.85263 | -106.23263 | 8828 ft | 296 kts | 112° |
| 2026-04-21 21:01 | 31.84492 | -106.21014 | 9359 ft | 299 kts | 112° |
| 2026-04-21 21:01 | 31.83723 | -106.18747 | 9883 ft | 302 kts | 112° |
| 2026-04-21 21:02 | 31.82957 | -106.16458 | 10401 ft | 304 kts | 112° |
| 2026-04-21 21:02 | 31.82171 | -106.14074 | 10980 ft | 318 kts | 112° |
| 2026-04-21 21:02 | 31.81386 | -106.11657 | 11520 ft | 319 kts | 112° |
| 2026-04-21 21:02 | 31.80607 | -106.09212 | 12029 ft | 316 kts | 112° |
| 2026-04-21 21:03 | 31.79854 | -106.06805 | 12516 ft | 316 kts | 112° |
| 2026-04-21 21:03 | 31.79110 | -106.04396 | 13008 ft | 316 kts | 112° |
| 2026-04-21 21:03 | 31.78540 | -106.01912 | 13469 ft | 319 kts | 98° |
| 2026-04-21 21:03 | 31.78523 | -105.99278 | 13995 ft | 320 kts | 91° |
| 2026-04-21 21:04 | 31.78465 | -105.96626 | 14527 ft | 336 kts | 94° |
| 2026-04-21 21:04 | 31.78359 | -105.93801 | 15108 ft | 353 kts | 94° |
| 2026-04-21 21:04 | 31.78250 | -105.90858 | 15712 ft | 368 kts | 94° |
| 2026-04-21 21:04 | 31.78140 | -105.87781 | 16331 ft | 382 kts | 93° |
| 2026-04-21 21:05 | 31.78025 | -105.84637 | 16918 ft | 390 kts | 93° |
| 2026-04-21 21:05 | 31.77897 | -105.81380 | 17465 ft | 390 kts | 93° |
| 2026-04-21 21:05 | 31.77773 | -105.78159 | 17961 ft | 390 kts | 93° |
| 2026-04-21 21:05 | 31.77650 | -105.74954 | 18456 ft | 390 kts | 93° |
| 2026-04-21 21:06 | 31.77523 | -105.71734 | 18954 ft | 391 kts | 94° |
| 2026-04-21 21:06 | 31.77390 | -105.68512 | 19456 ft | 391 kts | 94° |
| 2026-04-21 21:06 | 31.77260 | -105.65314 | 19952 ft | 392 kts | 93° |
| 2026-04-21 21:06 | 31.77128 | -105.62084 | 20453 ft | 393 kts | 94° |
| 2026-04-21 21:07 | 31.77000 | -105.58950 | 20938 ft | 393 kts | 94° |
| 2026-04-21 21:07 | 31.76850 | -105.55708 | 21444 ft | 394 kts | 95° |
| 2026-04-21 21:07 | 31.76704 | -105.52512 | 21940 ft | 394 kts | 95° |
| 2026-04-21 21:07 | 31.76567 | -105.49318 | 22435 ft | 395 kts | 95° |
| 2026-04-21 21:08 | 31.76436 | -105.46100 | 22942 ft | 396 kts | 94° |
| 2026-04-21 21:08 | 31.76300 | -105.42896 | 23441 ft | 396 kts | 95° |
| 2026-04-21 21:08 | 31.76160 | -105.39640 | 23949 ft | 398 kts | 95° |
| 2026-04-21 21:08 | 31.76023 | -105.36383 | 24425 ft | 407 kts | 94° |
| 2026-04-21 21:09 | 31.75878 | -105.33016 | 24891 ft | 416 kts | 94° |
| 2026-04-21 21:09 | 31.75732 | -105.29582 | 25349 ft | 423 kts | 94° |
| 2026-04-21 21:09 | 31.75586 | -105.26116 | 25787 ft | 425 kts | 94° |
| 2026-04-21 21:09 | 31.75438 | -105.22636 | 26227 ft | 424 kts | 94° |
| 2026-04-21 21:10 | 31.75289 | -105.19197 | 26665 ft | 424 kts | 94° |
| 2026-04-21 21:10 | 31.75135 | -105.15781 | 27101 ft | 424 kts | 94° |
| 2026-04-21 21:10 | 31.74977 | -105.12322 | 27544 ft | 425 kts | 94° |
| 2026-04-21 21:10 | 31.74599 | -105.08853 | 27948 ft | 424 kts | 106° |
| 2026-04-21 21:11 | 31.73787 | -105.05572 | 28379 ft | 424 kts | 111° |
| 2026-04-21 21:11 | 31.72822 | -105.02302 | 28828 ft | 425 kts | 113° |
| 2026-04-21 21:11 | 31.71821 | -104.99030 | 29274 ft | 427 kts | 112° |
| 2026-04-21 21:11 | 31.70821 | -104.95779 | 29700 ft | 428 kts | 112° |
| 2026-04-21 21:12 | 31.69794 | -104.92457 | 30109 ft | 430 kts | 112° |
| 2026-04-21 21:12 | 31.68782 | -104.89189 | 30514 ft | 432 kts | 112° |
| 2026-04-21 21:12 | 31.67750 | -104.85863 | 30870 ft | 433 kts | 112° |
| 2026-04-21 21:12 | 31.66711 | -104.82535 | 31165 ft | 433 kts | 111° |
| 2026-04-21 21:13 | 31.65668 | -104.79202 | 31469 ft | 433 kts | 113° |
| 2026-04-21 21:13 | 31.64632 | -104.75897 | 31774 ft | 433 kts | 113° |
| 2026-04-21 21:13 | 31.63592 | -104.72572 | 32079 ft | 434 kts | 113° |
| 2026-04-21 21:13 | 31.62555 | -104.69211 | 32400 ft | 434 kts | 110° |
| 2026-04-21 21:14 | 31.61547 | -104.65907 | 32711 ft | 434 kts | 110° |
| 2026-04-21 21:14 | 31.60525 | -104.62580 | 33012 ft | 435 kts | 110° |
| 2026-04-21 21:14 | 31.59482 | -104.59245 | 33330 ft | 435 kts | 110° |
| 2026-04-21 21:14 | 31.58442 | -104.55928 | 33645 ft | 435 kts | 110° |
| 2026-04-21 21:15 | 31.57402 | -104.52610 | 33967 ft | 436 kts | 111° |
| 2026-04-21 21:15 | 31.56343 | -104.49260 | 34298 ft | 435 kts | 111° |
| 2026-04-21 21:15 | 31.55307 | -104.45978 | 34623 ft | 434 kts | 111° |
| 2026-04-21 21:15 | 31.54265 | -104.42668 | 34955 ft | 433 kts | 111° |
| 2026-04-21 21:16 | 31.53218 | -104.39346 | 35286 ft | 433 kts | 111° |
| 2026-04-21 21:16 | 31.52186 | -104.36071 | 35616 ft | 432 kts | 111° |
| 2026-04-21 21:16 | 31.51147 | -104.32770 | 35935 ft | 431 kts | 110° |
| 2026-04-21 21:16 | 31.50112 | -104.29462 | 36220 ft | 431 kts | 109° |
| 2026-04-21 21:17 | 31.49081 | -104.26186 | 36518 ft | 431 kts | 111° |
| 2026-04-21 21:17 | 31.48037 | -104.22922 | 36830 ft | 431 kts | 112° |
| 2026-04-21 21:17 | 31.46982 | -104.19641 | 37071 ft | 433 kts | 112° |
| 2026-04-21 21:17 | 31.45930 | -104.16348 | 37295 ft | 435 kts | 112° |
| 2026-04-21 21:18 | 31.44863 | -104.12989 | 37536 ft | 438 kts | 112° |
| 2026-04-21 21:18 | 31.43812 | -104.09679 | 37781 ft | 439 kts | 112° |
| 2026-04-21 21:18 | 31.42738 | -104.06302 | 38031 ft | 441 kts | 112° |
| 2026-04-21 21:18 | 31.41673 | -104.02960 | 38248 ft | 443 kts | 112° |
| 2026-04-21 21:19 | 31.40588 | -103.99559 | 38423 ft | 447 kts | 112° |
| 2026-04-21 21:19 | 31.39509 | -103.96173 | 38604 ft | 450 kts | 112° |
| 2026-04-21 21:19 | 31.38417 | -103.92751 | 38786 ft | 453 kts | 112° |
| 2026-04-21 21:19 | 31.37307 | -103.89285 | 38965 ft | 455 kts | 112° |
| 2026-04-21 21:20 | 31.36195 | -103.85812 | 39141 ft | 454 kts | 112° |
| 2026-04-21 21:20 | 31.35097 | -103.82385 | 39276 ft | 454 kts | 112° |
| 2026-04-21 21:20 | 31.33973 | -103.78886 | 39403 ft | 453 kts | 112° |
| 2026-04-21 21:20 | 31.32858 | -103.75410 | 39537 ft | 453 kts | 112° |
| 2026-04-21 21:21 | 31.31732 | -103.71909 | 39671 ft | 453 kts | 112° |
| 2026-04-21 21:21 | 31.30611 | -103.68427 | 39805 ft | 453 kts | 112° |
| 2026-04-21 21:21 | 31.29502 | -103.64986 | 39939 ft | 453 kts | 112° |
| 2026-04-21 21:21 | 31.28392 | -103.61544 | 40070 ft | 454 kts | 112° |
| 2026-04-21 21:22 | 31.27281 | -103.58103 | 40178 ft | 454 kts | 112° |
| 2026-04-21 21:22 | 31.26161 | -103.54640 | 40267 ft | 454 kts | 112° |
| 2026-04-21 21:22 | 31.23927 | -103.47747 | 40456 ft | 453 kts | 112° |
| 2026-04-21 21:23 | 31.21697 | -103.40871 | 40648 ft | 453 kts | 112° |
| 2026-04-21 21:23 | 31.19475 | -103.34028 | 40842 ft | 453 kts | 113° |
| 2026-04-21 21:24 | 31.17238 | -103.27162 | 40988 ft | 453 kts | 113° |
| 2026-04-21 21:24 | 31.15000 | -103.20311 | 41077 ft | 454 kts | 113° |
| 2026-04-21 21:25 | 31.12746 | -103.13421 | 41078 ft | 454 kts | 113° |
| 2026-04-21 21:25 | 31.10479 | -103.06511 | 41101 ft | 463 kts | 112° |
| 2026-04-21 21:26 | 31.08156 | -102.99442 | 41101 ft | 468 kts | 112° |
| 2026-04-21 21:26 | 31.05845 | -102.92421 | 41102 ft | 466 kts | 112° |
| 2026-04-21 21:27 | 31.03527 | -102.85398 | 41105 ft | 466 kts | 112° |
| 2026-04-21 21:27 | 31.01189 | -102.78332 | 41119 ft | 471 kts | 112° |
| 2026-04-21 21:28 | 30.98811 | -102.71159 | 41110 ft | 478 kts | 112° |
| 2026-04-21 21:29 | 30.95240 | -102.60412 | 41108 ft | 472 kts | 112° |
| 2026-04-21 21:29 | 30.92889 | -102.53353 | 41112 ft | 471 kts | 112° |
| 2026-04-21 21:30 | 30.90519 | -102.46257 | 41112 ft | 470 kts | 111° |
| 2026-04-21 21:30 | 30.88161 | -102.39210 | 41107 ft | 468 kts | 111° |
| 2026-04-21 21:31 | 30.85797 | -102.32156 | 41093 ft | 468 kts | 112° |
| 2026-04-21 21:31 | 30.83428 | -102.25101 | 41092 ft | 468 kts | 110° |
| 2026-04-21 21:32 | 30.81072 | -102.18036 | 41100 ft | 468 kts | 113° |
| 2026-04-21 21:32 | 30.78690 | -102.11051 | 41114 ft | 467 kts | 113° |
| 2026-04-21 21:33 | 30.76311 | -102.04025 | 41141 ft | 467 kts | 113° |
| 2026-04-21 21:33 | 30.73925 | -101.96979 | 41163 ft | 468 kts | 113° |
| 2026-04-21 21:34 | 30.71562 | -101.90010 | 41164 ft | 468 kts | 113° |
| 2026-04-21 21:34 | 30.69173 | -101.82986 | 41166 ft | 467 kts | 113° |
| 2026-04-21 21:35 | 30.66789 | -101.75995 | 41167 ft | 468 kts | 113° |
| 2026-04-21 21:35 | 30.64389 | -101.68972 | 41168 ft | 468 kts | 113° |
| 2026-04-21 21:36 | 30.61993 | -101.61975 | 41169 ft | 467 kts | 113° |
| 2026-04-21 21:36 | 30.59600 | -101.54999 | 41171 ft | 467 kts | 113° |
| 2026-04-21 21:37 | 30.57195 | -101.48003 | 41172 ft | 467 kts | 113° |
| 2026-04-21 21:37 | 30.54789 | -101.41019 | 41173 ft | 467 kts | 113° |
| 2026-04-21 21:38 | 30.52375 | -101.34027 | 41171 ft | 467 kts | 114° |
| 2026-04-21 21:38 | 30.49808 | -101.27128 | 41164 ft | 466 kts | 118° |
| 2026-04-21 21:39 | 30.46989 | -101.20424 | 41161 ft | 466 kts | 118° |
| 2026-04-21 21:39 | 30.44125 | -101.13660 | 41162 ft | 466 kts | 118° |
| 2026-04-21 21:40 | 30.41266 | -101.06925 | 41162 ft | 466 kts | 118° |
| 2026-04-21 21:40 | 30.38399 | -101.00172 | 41166 ft | 467 kts | 118° |
| 2026-04-21 21:41 | 30.35525 | -100.93427 | 41173 ft | 470 kts | 118° |
| 2026-04-21 21:41 | 30.32627 | -100.86631 | 41179 ft | 472 kts | 118° |
| 2026-04-21 21:42 | 30.29711 | -100.79803 | 41184 ft | 474 kts | 117° |
| 2026-04-21 21:42 | 30.26788 | -100.72975 | 41187 ft | 474 kts | 118° |
| 2026-04-21 21:43 | 30.23864 | -100.66163 | 41175 ft | 475 kts | 118° |
| 2026-04-21 21:43 | 30.22382 | -100.62714 | 40732 ft | 481 kts | 118° |
| 2026-04-21 21:43 | 30.20911 | -100.59287 | 40309 ft | 479 kts | 118° |
| 2026-04-21 21:43 | 30.19446 | -100.55878 | 39871 ft | 475 kts | 118° |
| 2026-04-21 21:44 | 30.17969 | -100.52451 | 39432 ft | 472 kts | 118° |
| 2026-04-21 21:44 | 30.16521 | -100.49090 | 38996 ft | 468 kts | 119° |
| 2026-04-21 21:44 | 30.15064 | -100.45721 | 38563 ft | 465 kts | 118° |
| 2026-04-21 21:44 | 30.13596 | -100.42321 | 38122 ft | 462 kts | 118° |
| 2026-04-21 21:45 | 30.12164 | -100.38992 | 37673 ft | 458 kts | 115° |
| 2026-04-21 21:45 | 30.10779 | -100.35731 | 37206 ft | 454 kts | 116° |
| 2026-04-21 21:45 | 30.09381 | -100.32479 | 36731 ft | 450 kts | 117° |
| 2026-04-21 21:45 | 30.07987 | -100.29285 | 36272 ft | 447 kts | 119° |
| 2026-04-21 21:46 | 30.06581 | -100.26087 | 35818 ft | 445 kts | 119° |
| 2026-04-21 21:46 | 30.05198 | -100.22921 | 35365 ft | 443 kts | 119° |
| 2026-04-21 21:46 | 30.03810 | -100.19727 | 34907 ft | 441 kts | 119° |
| 2026-04-21 21:46 | 30.02460 | -100.16618 | 34461 ft | 439 kts | 118° |
| 2026-04-21 21:47 | 30.01102 | -100.13494 | 34012 ft | 437 kts | 119° |
| 2026-04-21 21:47 | 29.99736 | -100.10358 | 33563 ft | 435 kts | 119° |
| 2026-04-21 21:47 | 29.98394 | -100.07279 | 33122 ft | 433 kts | 119° |
| 2026-04-21 21:47 | 29.97043 | -100.04179 | 32677 ft | 431 kts | 120° |
| 2026-04-21 21:48 | 29.95697 | -100.01100 | 32233 ft | 428 kts | 120° |
| 2026-04-21 21:48 | 29.94359 | -99.98040 | 31789 ft | 426 kts | 120° |
| 2026-04-21 21:48 | 29.93036 | -99.95013 | 31349 ft | 424 kts | 120° |
| 2026-04-21 21:48 | 29.91711 | -99.91984 | 30906 ft | 422 kts | 121° |
| 2026-04-21 21:49 | 29.90396 | -99.88982 | 30465 ft | 420 kts | 121° |
| 2026-04-21 21:49 | 29.89066 | -99.85947 | 30015 ft | 418 kts | 121° |
| 2026-04-21 21:49 | 29.87777 | -99.83006 | 29577 ft | 416 kts | 120° |
| 2026-04-21 21:49 | 29.86601 | -99.79984 | 29139 ft | 415 kts | 117° |
| 2026-04-21 21:50 | 29.85484 | -99.76932 | 28692 ft | 413 kts | 116° |
| 2026-04-21 21:50 | 29.84377 | -99.73873 | 28229 ft | 411 kts | 116° |
| 2026-04-21 21:50 | 29.83291 | -99.70868 | 27782 ft | 409 kts | 116° |
| 2026-04-21 21:50 | 29.82202 | -99.67856 | 27329 ft | 407 kts | 116° |
| 2026-04-21 21:51 | 29.81113 | -99.64841 | 26867 ft | 404 kts | 116° |
| 2026-04-21 21:51 | 29.80042 | -99.61883 | 26419 ft | 402 kts | 117° |
| 2026-04-21 21:51 | 29.78963 | -99.58906 | 25966 ft | 399 kts | 117° |
| 2026-04-21 21:51 | 29.77908 | -99.55998 | 25519 ft | 397 kts | 117° |
| 2026-04-21 21:52 | 29.76852 | -99.53088 | 25063 ft | 394 kts | 117° |
| 2026-04-21 21:52 | 29.75799 | -99.50188 | 24555 ft | 384 kts | 117° |
| 2026-04-21 21:52 | 29.74803 | -99.47443 | 24041 ft | 368 kts | 117° |
| 2026-04-21 21:52 | 29.73835 | -99.44779 | 23527 ft | 353 kts | 118° |
| 2026-04-21 21:53 | 29.72899 | -99.42208 | 22988 ft | 342 kts | 118° |
| 2026-04-21 21:53 | 29.72006 | -99.39760 | 22450 ft | 332 kts | 118° |
| 2026-04-21 21:53 | 29.71127 | -99.37350 | 21910 ft | 323 kts | 118° |
| 2026-04-21 21:53 | 29.70265 | -99.34989 | 21374 ft | 315 kts | 118° |
| 2026-04-21 21:54 | 29.69424 | -99.32686 | 20824 ft | 308 kts | 118° |
| 2026-04-21 21:54 | 29.68612 | -99.30463 | 20291 ft | 301 kts | 118° |
| 2026-04-21 21:54 | 29.67815 | -99.28283 | 19754 ft | 295 kts | 118° |
| 2026-04-21 21:54 | 29.67026 | -99.26128 | 19222 ft | 289 kts | 118° |
| 2026-04-21 21:55 | 29.66262 | -99.24040 | 18694 ft | 284 kts | 118° |
| 2026-04-21 21:55 | 29.65498 | -99.21955 | 18163 ft | 279 kts | 118° |
| 2026-04-21 21:55 | 29.64751 | -99.19918 | 17643 ft | 275 kts | 118° |
| 2026-04-21 21:55 | 29.64014 | -99.17909 | 17125 ft | 272 kts | 118° |
| 2026-04-21 21:56 | 29.63293 | -99.15945 | 16621 ft | 269 kts | 117° |
| 2026-04-21 21:56 | 29.62572 | -99.13981 | 16120 ft | 266 kts | 117° |
| 2026-04-21 21:56 | 29.61862 | -99.12016 | 15612 ft | 263 kts | 115° |
| 2026-04-21 21:56 | 29.61159 | -99.10061 | 15096 ft | 261 kts | 115° |
| 2026-04-21 21:57 | 29.60460 | -99.08137 | 14582 ft | 257 kts | 115° |
| 2026-04-21 21:57 | 29.59765 | -99.06233 | 14066 ft | 254 kts | 115° |
| 2026-04-21 21:57 | 29.59078 | -99.04360 | 13552 ft | 251 kts | 115° |
| 2026-04-21 21:57 | 29.58397 | -99.02512 | 13038 ft | 248 kts | 115° |
| 2026-04-21 21:58 | 29.57721 | -99.00694 | 12526 ft | 245 kts | 114° |
| 2026-04-21 21:58 | 29.57055 | -98.98907 | 12016 ft | 243 kts | 114° |
| 2026-04-21 21:58 | 29.56394 | -98.97116 | 11504 ft | 240 kts | 114° |
| 2026-04-21 21:58 | 29.55747 | -98.95381 | 10996 ft | 238 kts | 116° |
| 2026-04-21 21:59 | 29.55100 | -98.93642 | 10495 ft | 235 kts | 115° |
| 2026-04-21 21:59 | 29.54460 | -98.91925 | 9993 ft | 233 kts | 115° |
| 2026-04-21 21:59 | 29.53824 | -98.90229 | 9492 ft | 230 kts | 116° |
| 2026-04-21 21:59 | 29.53208 | -98.88569 | 8997 ft | 228 kts | 115° |
| 2026-04-21 22:00 | 29.52595 | -98.86898 | 8494 ft | 226 kts | 115° |
| 2026-04-21 22:00 | 29.51990 | -98.85258 | 7997 ft | 224 kts | 115° |
| 2026-04-21 22:00 | 29.51380 | -98.83610 | 7493 ft | 222 kts | 115° |
| 2026-04-21 22:00 | 29.50779 | -98.81992 | 6991 ft | 220 kts | 114° |
| 2026-04-21 22:01 | 29.50184 | -98.80385 | 6492 ft | 218 kts | 114° |
| 2026-04-21 22:01 | 29.49594 | -98.78794 | 5992 ft | 217 kts | 114° |
| 2026-04-21 22:01 | 29.49010 | -98.77213 | 5491 ft | 215 kts | 113° |
| 2026-04-21 22:01 | 29.48435 | -98.75659 | 4998 ft | 214 kts | 113° |
| 2026-04-21 22:02 | 29.47841 | -98.74093 | 4491 ft | 213 kts | 118° |
| 2026-04-21 22:02 | 29.47026 | -98.72691 | 4000 ft | 212 kts | 124° |
| 2026-04-21 22:02 | 29.46175 | -98.71314 | 3496 ft | 211 kts | 124° |
| 2026-04-21 22:02 | 29.45320 | -98.69951 | 2995 ft | 211 kts | 124° |
| 2026-04-21 22:03 | 29.44466 | -98.68603 | 2628 ft | 204 kts | 124° |
| 2026-04-21 22:03 | 29.43660 | -98.67336 | 2455 ft | 190 kts | 124° |
| 2026-04-21 22:03 | 29.42908 | -98.66158 | 2465 ft | 175 kts | 124° |
| 2026-04-21 22:03 | 29.42217 | -98.65080 | 2449 ft | 163 kts | 124° |
| 2026-04-21 22:04 | 29.41540 | -98.64021 | 2459 ft | 164 kts | 124° |
| 2026-04-21 22:04 | 29.40949 | -98.62905 | 2448 ft | 166 kts | 104° |
| 2026-04-21 22:04 | 29.40795 | -98.61605 | 2475 ft | 165 kts | 94° |
| 2026-04-21 22:04 | 29.40700 | -98.60269 | 2464 ft | 165 kts | 89° |
| 2026-04-21 22:05 | 29.40931 | -98.58999 | 2482 ft | 165 kts | 71° |
| 2026-04-21 22:05 | 29.41552 | -98.57906 | 2469 ft | 162 kts | 49° |
| 2026-04-21 22:05 | 29.42327 | -98.56988 | 2458 ft | 155 kts | 46° |
| 2026-04-21 22:05 | 29.43112 | -98.56139 | 2471 ft | 156 kts | 44° |
| 2026-04-21 22:06 | 29.43917 | -98.55309 | 2478 ft | 157 kts | 43° |
| 2026-04-21 22:06 | 29.44738 | -98.54486 | 2470 ft | 152 kts | 43° |
| 2026-04-21 22:06 | 29.45507 | -98.53724 | 2442 ft | 142 kts | 43° |
| 2026-04-21 22:06 | 29.46256 | -98.52982 | 2403 ft | 147 kts | 43° |
| 2026-04-21 22:07 | 29.47041 | -98.52206 | 2207 ft | 147 kts | 43° |
| 2026-04-21 22:07 | 29.47809 | -98.51450 | 2010 ft | 145 kts | 43° |
| 2026-04-21 22:07 | 29.48564 | -98.50704 | 1815 ft | 143 kts | 43° |
| 2026-04-21 22:07 | 29.49320 | -98.49959 | 1628 ft | 142 kts | 42° |
| 2026-04-21 22:08 | 29.50063 | -98.49225 | 1443 ft | 142 kts | 42° |
| 2026-04-21 22:08 | 29.50808 | -98.48489 | 1259 ft | 141 kts | 42° |
| 2026-04-21 22:08 | 29.51552 | -98.47755 | 1072 ft | 141 kts | 42° |
| 2026-04-21 22:08 | 29.52290 | -98.47020 | 856 ft | 141 kts | 41° |
| 2026-04-21 22:09 | 29.52966 | -98.46354 | 817 ft | 87 kts | 40° |
| 2026-04-21 22:09 | 29.53189 | -98.46137 | 817 ft | 15 kts | 36° |
| 2026-04-21 22:09 | 29.53271 | -98.46155 | 817 ft | 11 kts | 315° |
| 2026-04-21 22:09 | 29.53280 | -98.46217 | 817 ft | 5 kts | 249° |
| 2026-04-21 22:10 | 29.53265 | -98.46242 | 817 ft | 1 kts | 226° |
| 2026-04-21 22:10 | 29.53236 | -98.46275 | 817 ft | 12 kts | 223° |
| 2026-04-21 22:10 | 29.53145 | -98.46365 | 817 ft | 17 kts | 219° |
| 2026-04-21 22:10 | 29.53063 | -98.46445 | 817 ft | 14 kts | 220° |
| 2026-04-21 22:11 | 29.52985 | -98.46523 | 817 ft | 15 kts | 221° |
| 2026-04-21 22:11 | 29.52905 | -98.46602 | 817 ft | 15 kts | 217° |
| 2026-04-21 22:11 | 29.52852 | -98.46703 | 817 ft | 15 kts | 263° |
| 2026-04-21 22:11 | 29.52814 | -98.46812 | 817 ft | 15 kts | 242° |
| 2026-04-21 22:12 | 29.52809 | -98.46931 | 817 ft | 15 kts | 274° |
| 2026-04-21 22:12 | 29.52854 | -98.47033 | 817 ft | 13 kts | 265° |
| 2026-04-21 22:12 | 29.52805 | -98.47102 | 817 ft | 9 kts | 223° |
| 2026-04-21 22:12 | 29.52752 | -98.47141 | 817 ft | 10 kts | 183° |
| 2026-04-21 22:13 | 29.52707 | -98.47120 | 817 ft | 0 kts | 148° |